createdAt,value
2018-02-17T00:02:24.777Z,3.77
2018-02-17T00:04:52.571Z,4.73
2018-02-17T00:07:20.301Z,3.33
2018-02-17T00:09:48.671Z,3.50
2018-02-17T00:12:16.330Z,3.77
2018-02-17T00:14:43.859Z,3.50
2018-02-17T00:17:11.609Z,3.80
2018-02-17T00:19:39.336Z,4.27
2018-02-17T00:22:06.978Z,3.70
2018-02-17T00:24:34.708Z,4.13
2018-02-17T00:27:02.488Z,3.40
2018-02-17T00:29:30.190Z,3.90
2018-02-17T00:31:58.628Z,3.40
2018-02-17T00:34:26.389Z,3.90
2018-02-17T00:36:54.139Z,3.60
2018-02-17T00:39:21.868Z,3.97
2018-02-17T00:41:49.673Z,4.37
2018-02-17T00:44:17.388Z,4.40
2018-02-17T00:46:45.200Z,5.10
2018-02-17T00:49:12.807Z,4.93
2018-02-17T00:51:40.593Z,5.63
2018-02-17T00:54:08.222Z,4.90
2018-02-17T00:56:35.871Z,4.53
2018-02-17T00:59:03.563Z,4.83
2018-02-17T01:01:31.338Z,4.93
2018-02-17T01:03:59.025Z,5.37
2018-02-17T01:06:27.565Z,6.40
2018-02-17T01:08:55.235Z,5.70
2018-02-17T01:11:22.929Z,7.17
2018-02-17T01:13:50.702Z,5.87
2018-02-17T01:16:18.290Z,5.17
2018-02-17T01:18:45.956Z,3.90
2018-02-17T01:21:13.680Z,4.50
2018-02-17T01:23:41.309Z,3.60
2018-02-17T01:26:09.085Z,3.60
2018-02-17T01:28:36.783Z,3.77
2018-02-17T01:31:04.370Z,4.87
2018-02-17T01:33:32.853Z,2.30
2018-02-17T01:36:01.294Z,4.20
2018-02-17T01:38:28.939Z,3.63
2018-02-17T01:40:56.592Z,3.50
2018-02-17T01:43:24.284Z,3.20
2018-02-17T01:45:52.093Z,3.83
2018-02-17T01:48:19.777Z,4.67
2018-02-17T01:50:47.415Z,4.97
2018-02-17T01:53:15.645Z,4.67
2018-02-17T01:55:43.494Z,4.50
2018-02-17T01:58:11.198Z,5.00
2018-02-17T02:00:38.946Z,6.70
2018-02-17T02:03:06.695Z,7.20
2018-02-17T02:05:34.384Z,7.60
2018-02-17T02:08:02.058Z,8.30
2018-02-17T02:10:29.810Z,5.80
2018-02-17T02:12:57.894Z,9.17
2018-02-17T02:15:25.650Z,7.00
2018-02-17T02:17:53.334Z,7.63
2018-02-17T02:20:21.027Z,7.77
2018-02-17T02:22:48.698Z,6.80
2018-02-17T02:25:16.342Z,7.30
2018-02-17T02:27:44.032Z,6.83
2018-02-17T02:30:11.678Z,6.37
2018-02-17T02:32:39.335Z,8.30
2018-02-17T02:35:07.036Z,7.13
2018-02-17T02:37:34.727Z,6.93
2018-02-17T02:40:02.462Z,9.93
2018-02-17T02:42:30.206Z,10.80
2018-02-17T02:44:57.899Z,12.43
2018-02-17T02:47:25.646Z,11.50
2018-02-17T02:49:53.429Z,11.90
2018-02-17T02:52:21.934Z,13.23
2018-02-17T02:54:49.580Z,12.27
2018-02-17T02:57:17.267Z,22.63
2018-02-17T02:59:44.936Z,25.67
2018-02-17T03:02:13.346Z,14.00
2018-02-17T03:04:41.013Z,8.43
2018-02-17T03:07:08.678Z,9.23
2018-02-17T03:09:36.492Z,13.70
2018-02-17T03:12:04.141Z,17.40
2018-02-17T03:14:31.794Z,13.53
2018-02-17T03:16:59.489Z,11.73
2018-02-17T03:19:27.192Z,9.67
2018-02-17T03:21:54.891Z,11.70
2018-02-17T03:24:22.585Z,9.40
2018-02-17T03:26:50.182Z,10.17
2018-02-17T03:29:17.908Z,7.67
2018-02-17T03:31:45.659Z,9.27
2018-02-17T03:34:13.332Z,8.33
2018-02-17T03:36:41.015Z,8.07
2018-02-17T03:39:09.589Z,9.43
2018-02-17T03:41:37.322Z,15.63
2018-02-17T03:44:05.022Z,16.70
2018-02-17T03:46:33.442Z,17.13
2018-02-17T03:49:01.361Z,12.67
2018-02-17T03:51:28.956Z,15.27
2018-02-17T03:53:56.724Z,16.90
2018-02-17T03:56:25.322Z,12.60
2018-02-17T03:58:53.022Z,12.90
2018-02-17T04:01:20.881Z,10.33
2018-02-17T04:03:48.617Z,10.20
2018-02-17T04:06:16.323Z,9.33
2018-02-17T04:08:43.972Z,8.73
2018-02-17T04:11:11.658Z,9.20
2018-02-17T04:13:39.484Z,10.27
2018-02-17T04:16:07.110Z,9.30
2018-02-17T04:18:34.843Z,9.93
2018-02-17T04:21:02.552Z,12.37
2018-02-17T04:23:30.324Z,10.10
2018-02-17T04:25:58.037Z,13.73
2018-02-17T04:28:25.866Z,11.80
2018-02-17T04:30:53.500Z,13.87
2018-02-17T04:33:21.276Z,9.93
2018-02-17T04:35:48.990Z,9.90
2018-02-17T04:38:16.657Z,8.67
2018-02-17T04:40:44.958Z,9.37
2018-02-17T04:43:19.011Z,10.53
2018-02-17T04:45:48.973Z,9.30
2018-02-17T04:48:19.308Z,8.70
2018-02-17T04:54:05.463Z,12.77
2018-02-17T04:56:48.907Z,12.47
2018-02-17T04:59:22.110Z,11.23
2018-02-17T05:01:53.855Z,10.70
2018-02-17T05:04:31.476Z,10.10
2018-02-17T05:07:01.022Z,10.90
2018-02-17T05:09:28.875Z,11.27
2018-02-17T05:11:57.632Z,10.93
2018-02-17T05:14:29.268Z,10.60
2018-02-17T05:17:06.913Z,10.27
2018-02-17T05:19:39.088Z,9.83
2018-02-17T05:22:25.447Z,7.97
2018-02-17T05:25:11.699Z,7.00
2018-02-17T05:27:49.347Z,7.20
2018-02-17T05:30:18.799Z,7.10
2018-02-17T05:32:46.557Z,7.70
2018-02-17T05:38:14.201Z,7.47
2018-02-17T05:40:52.470Z,8.10
2018-02-17T05:43:20.171Z,7.17
2018-02-17T05:46:01.628Z,7.83
2018-02-17T05:48:33.406Z,7.70
2018-02-17T05:51:01.158Z,7.30
2018-02-17T05:53:28.831Z,7.60
2018-02-17T05:55:56.478Z,8.50
2018-02-17T05:58:24.165Z,7.90
2018-02-17T06:00:51.736Z,8.00
2018-02-17T06:03:19.522Z,9.00
2018-02-17T06:05:47.937Z,7.77
2018-02-17T06:08:15.575Z,9.47
2018-02-17T06:10:43.292Z,9.63
2018-02-17T06:13:11.012Z,7.87
2018-02-17T06:15:38.749Z,9.90
2018-02-17T06:18:06.502Z,8.33
2018-02-17T06:20:34.117Z,7.70
2018-02-17T06:23:01.900Z,7.60
2018-02-17T06:25:29.485Z,8.30
2018-02-17T06:27:57.354Z,7.80
2018-02-17T06:30:25.030Z,8.90
2018-02-17T06:32:53.443Z,9.23
2018-02-17T06:35:21.160Z,9.10
2018-02-17T06:37:48.781Z,8.67
2018-02-17T06:40:16.446Z,9.23
2018-02-17T06:42:44.209Z,7.73
2018-02-17T06:45:11.876Z,9.30
2018-02-17T06:47:39.539Z,9.43
2018-02-17T06:50:07.285Z,7.43
2018-02-17T06:52:34.920Z,6.60
2018-02-17T06:55:03.392Z,7.83
2018-02-17T06:57:31.153Z,9.50
2018-02-17T06:59:58.781Z,8.27
2018-02-17T07:02:27.303Z,8.47
2018-02-17T07:04:55.824Z,9.33
2018-02-17T07:07:23.425Z,9.47
2018-02-17T07:09:51.130Z,10.10
2018-02-17T07:12:18.994Z,8.10
2018-02-17T07:14:46.726Z,8.80
2018-02-17T07:17:14.249Z,7.40
2018-02-17T07:19:41.887Z,9.97
2018-02-17T07:22:09.593Z,7.67
2018-02-17T07:24:37.236Z,7.90
2018-02-17T07:27:04.993Z,9.70
2018-02-17T07:29:33.155Z,8.67
2018-02-17T07:32:01.089Z,7.23
2018-02-17T07:34:29.016Z,10.03
2018-02-17T07:36:57.739Z,9.43
2018-02-17T07:39:25.695Z,9.93
2018-02-17T07:41:54.381Z,10.13
2018-02-17T07:44:22.099Z,10.13
2018-02-17T07:46:50.108Z,9.53
2018-02-17T07:49:18.001Z,9.33
2018-02-17T07:51:45.685Z,10.70
2018-02-17T07:54:13.527Z,10.00
2018-02-17T07:56:41.201Z,9.00
2018-02-17T07:59:10.109Z,10.80
2018-02-17T08:01:39.160Z,10.63
2018-02-17T08:04:07.012Z,11.70
2018-02-17T08:06:35.052Z,12.43
2018-02-17T08:09:03.206Z,12.13
2018-02-17T08:11:31.023Z,12.93
2018-02-17T08:13:58.917Z,11.80
2018-02-17T08:16:26.996Z,11.90
2018-02-17T08:18:54.616Z,12.10
2018-02-17T08:21:22.352Z,12.70
2018-02-17T08:23:50.070Z,11.70
2018-02-17T08:36:42.938Z,11.03
2018-02-17T08:39:10.590Z,12.77
2018-02-17T08:41:38.263Z,14.00
2018-02-17T08:44:06.714Z,12.90
2018-02-17T08:46:34.442Z,12.97
2018-02-17T08:49:02.238Z,13.70
2018-02-17T08:51:29.968Z,13.33
2018-02-17T08:53:57.642Z,12.60
2018-02-17T08:56:25.310Z,14.53
2018-02-17T08:58:53.002Z,14.13
2018-02-17T09:01:21.255Z,15.40
2018-02-17T09:03:49.061Z,10.33
2018-02-17T09:06:16.981Z,10.17
2018-02-17T09:08:45.094Z,14.27
2018-02-17T09:11:13.012Z,15.00
2018-02-17T09:13:41.878Z,13.27
2018-02-17T09:16:09.684Z,14.93
2018-02-17T09:18:37.384Z,14.07
2018-02-17T09:21:05.078Z,14.43
2018-02-17T09:23:32.934Z,14.77
2018-02-17T09:26:00.922Z,14.73
2018-02-17T09:28:28.953Z,16.20
2018-02-17T09:30:56.755Z,14.97
2018-02-17T09:33:24.634Z,15.17
2018-02-17T09:35:52.371Z,14.93
2018-02-17T09:38:20.110Z,15.20
2018-02-17T09:40:47.995Z,16.00
2018-02-17T09:43:16.859Z,15.60
2018-02-17T09:45:44.577Z,16.10
2018-02-17T09:48:12.329Z,16.37
2018-02-17T09:50:40.683Z,15.73
2018-02-17T09:53:08.514Z,11.27
2018-02-17T09:55:36.170Z,15.40
2018-02-17T09:58:03.954Z,15.10
2018-02-17T10:00:31.694Z,13.83
2018-02-17T10:02:59.563Z,16.70
2018-02-17T10:05:27.303Z,14.90
2018-02-17T10:07:55.050Z,15.63
2018-02-17T10:10:22.649Z,15.03
2018-02-17T10:12:50.600Z,14.17
2018-02-17T10:15:19.323Z,17.57
2018-02-17T10:17:48.110Z,14.80
2018-02-17T10:20:15.937Z,14.97
2018-02-17T10:22:43.653Z,16.40
2018-02-17T10:25:11.685Z,19.43
2018-02-17T10:27:39.733Z,16.50
2018-02-17T10:30:07.416Z,16.80
2018-02-17T10:32:35.839Z,15.57
2018-02-17T10:35:03.589Z,17.10
2018-02-17T10:37:31.247Z,17.23
2018-02-17T10:39:58.878Z,14.43
2018-02-17T10:42:27.454Z,19.03
2018-02-17T10:44:55.257Z,17.90
2018-02-17T10:47:22.818Z,20.40
2018-02-17T10:49:50.552Z,66.23
2018-02-17T10:52:18.956Z,143.10
2018-02-17T10:54:46.751Z,58.10
2018-02-17T10:57:14.400Z,101.70
2018-02-17T10:59:42.101Z,52.20
2018-02-17T11:02:09.794Z,27.07
2018-02-17T11:04:37.467Z,40.37
2018-02-17T11:07:05.282Z,73.23
2018-02-17T11:09:33.017Z,29.03
2018-02-17T11:12:00.682Z,26.37
2018-02-17T11:14:28.415Z,22.13
2018-02-17T11:16:55.983Z,38.83
2018-02-17T11:19:23.770Z,22.23
2018-02-17T11:21:51.554Z,21.17
2018-02-17T11:24:19.919Z,32.90
2018-02-17T11:26:47.510Z,18.87
2018-02-17T11:29:15.185Z,63.30
2018-02-17T11:31:42.895Z,32.00
2018-02-17T11:34:10.594Z,98.90
2018-02-17T11:36:38.282Z,35.30
2018-02-17T11:39:06.004Z,23.37
2018-02-17T11:41:33.769Z,18.80
2018-02-17T11:44:01.643Z,20.30
2018-02-17T11:46:29.236Z,28.70
2018-02-17T11:48:57.712Z,20.87
2018-02-17T11:51:25.568Z,51.70
2018-02-17T11:53:53.198Z,36.37
2018-02-17T11:56:20.869Z,38.77
2018-02-17T11:58:48.567Z,79.07
2018-02-17T12:01:16.321Z,62.50
2018-02-17T12:03:44.065Z,93.80
2018-02-17T12:06:11.758Z,20.67
2018-02-17T12:08:39.411Z,21.33
2018-02-17T12:11:07.230Z,24.87
2018-02-17T12:13:37.247Z,20.67
2018-02-17T12:16:04.964Z,17.27
2018-02-17T12:18:32.730Z,21.30
2018-02-17T12:21:00.433Z,18.27
2018-02-17T12:23:28.108Z,16.67
2018-02-17T12:25:55.731Z,33.60
2018-02-17T12:28:23.528Z,23.80
2018-02-17T12:30:51.185Z,18.10
2018-02-17T12:42:02.383Z,21.23
2018-02-17T12:44:30.075Z,19.57
2018-02-17T12:46:57.705Z,18.77
2018-02-17T12:49:25.405Z,19.30
2018-02-17T12:51:53.094Z,20.20
2018-02-17T12:54:20.858Z,18.27
2018-02-17T12:56:48.438Z,19.57
2018-02-17T12:59:16.135Z,18.27
2018-02-17T13:01:43.843Z,15.10
2018-02-17T13:04:11.538Z,20.27
2018-02-17T13:06:39.135Z,19.10
2018-02-17T13:09:06.844Z,19.30
2018-02-17T13:11:34.572Z,14.47
2018-02-17T13:14:02.195Z,17.57
2018-02-17T13:16:29.935Z,18.87
2018-02-17T13:18:57.664Z,19.10
2018-02-17T13:21:26.107Z,20.00
2018-02-17T13:23:53.859Z,20.80
2018-02-17T13:26:21.669Z,20.33
2018-02-17T13:28:50.028Z,21.37
2018-02-17T13:31:17.648Z,18.63
2018-02-17T13:33:45.330Z,19.47
2018-02-17T13:36:13.018Z,18.67
2018-02-17T13:38:40.699Z,15.37
2018-02-17T13:41:08.459Z,18.10
2018-02-17T13:43:36.065Z,19.80
2018-02-17T13:46:03.705Z,20.60
2018-02-17T13:48:32.138Z,18.90
2018-02-17T13:50:59.830Z,19.87
2018-02-17T13:53:27.579Z,19.50
2018-02-17T13:55:55.298Z,16.47
2018-02-17T13:58:22.995Z,15.87
2018-02-17T14:00:50.664Z,15.97
2018-02-17T14:03:18.315Z,15.27
2018-02-17T14:05:46.041Z,42.23
2018-02-17T14:08:13.845Z,20.27
2018-02-17T14:10:41.507Z,18.40
2018-02-17T14:13:09.202Z,16.83
2018-02-17T14:15:36.762Z,17.80
2018-02-17T14:18:04.624Z,17.70
2018-02-17T14:20:32.352Z,17.17
2018-02-17T14:22:59.995Z,15.40
2018-02-17T14:25:27.784Z,17.00
2018-02-17T14:27:55.444Z,17.83
2018-02-17T14:30:23.119Z,18.10
2018-02-17T14:32:50.869Z,16.93
2018-02-17T14:35:18.497Z,18.03
2018-02-17T14:37:46.940Z,15.17
2018-02-17T14:40:14.597Z,14.70
2018-02-17T14:42:42.179Z,15.33
2018-02-17T14:45:09.825Z,15.77
2018-02-17T14:47:37.592Z,14.63
2018-02-17T14:50:05.189Z,15.00
2018-02-17T14:52:32.893Z,14.50
2018-02-17T14:55:00.522Z,13.40
2018-02-17T14:57:28.958Z,13.50
2018-02-17T14:59:56.639Z,14.53
2018-02-17T15:02:24.292Z,11.37
2018-02-17T15:04:51.898Z,11.53
2018-02-17T15:07:19.549Z,13.60
2018-02-17T15:09:47.266Z,13.50
2018-02-17T15:12:15.046Z,10.23
2018-02-17T15:14:42.689Z,13.73
2018-02-17T15:17:10.344Z,12.03
2018-02-17T15:19:38.018Z,12.97
2018-02-17T15:22:06.501Z,11.70
2018-02-17T15:24:34.286Z,12.37
2018-02-17T15:27:02.024Z,11.10
2018-02-17T15:29:29.654Z,12.20
2018-02-17T15:31:57.275Z,12.47
2018-02-17T15:34:25.027Z,12.70
2018-02-17T15:36:52.644Z,12.60
2018-02-17T15:39:20.264Z,12.80
2018-02-17T15:41:48.227Z,12.00
2018-02-17T15:44:15.829Z,12.63
2018-02-17T15:46:43.611Z,12.90
2018-02-17T15:49:11.283Z,13.73
2018-02-17T15:51:39.035Z,13.20
2018-02-17T15:54:06.550Z,12.07
2018-02-17T15:56:34.021Z,13.77
2018-02-17T15:59:02.542Z,13.30
2018-02-17T16:01:30.300Z,13.90
2018-02-17T16:03:58.042Z,13.30
2018-02-17T16:06:25.706Z,12.33
2018-02-17T16:08:54.112Z,12.13
2018-02-17T16:11:21.804Z,12.77
2018-02-17T16:13:50.327Z,11.90
2018-02-17T16:16:18.712Z,42.17
2018-02-17T16:18:46.450Z,17.23
2018-02-17T16:21:14.186Z,17.17
2018-02-17T16:23:41.868Z,14.43
2018-02-17T16:26:09.679Z,13.40
2018-02-17T16:28:37.373Z,15.40
2018-02-17T16:31:05.011Z,14.27
2018-02-17T16:33:32.719Z,11.70
2018-02-17T16:36:00.423Z,11.90
2018-02-17T16:38:27.886Z,11.90
2018-02-17T16:40:55.373Z,10.27
2018-02-17T16:43:23.161Z,14.20
2018-02-17T16:45:50.917Z,10.63
2018-02-17T16:48:18.418Z,11.90
2018-02-17T16:50:46.642Z,12.80
2018-02-17T16:53:14.105Z,12.40
2018-02-17T16:55:41.627Z,11.47
2018-02-17T16:58:09.113Z,11.20
2018-02-17T17:00:36.576Z,11.03
2018-02-17T17:03:04.061Z,11.70
2018-02-17T17:05:31.545Z,13.13
2018-02-17T17:07:59.038Z,12.47
2018-02-17T17:10:26.497Z,13.97
2018-02-17T17:12:53.960Z,13.17
2018-02-17T17:15:21.522Z,11.87
2018-02-17T17:17:49.020Z,11.23
2018-02-17T17:20:16.532Z,12.90
2018-02-17T17:22:44.010Z,11.07
2018-02-17T17:25:11.621Z,11.63
2018-02-17T17:27:40.098Z,10.87
2018-02-17T17:30:08.709Z,11.77
2018-02-17T17:32:36.438Z,12.30
2018-02-17T17:35:04.126Z,11.03
2018-02-17T17:37:32.565Z,10.70
2018-02-17T17:40:00.302Z,11.80
2018-02-17T17:42:27.904Z,10.80
2018-02-17T17:44:55.676Z,10.40
2018-02-17T17:47:23.402Z,11.67
2018-02-17T17:49:51.090Z,10.10
2018-02-17T17:52:18.797Z,10.57
2018-02-17T17:54:46.532Z,11.77
2018-02-17T17:57:14.180Z,11.30
2018-02-17T17:59:41.802Z,11.50
2018-02-17T18:02:09.445Z,11.30
2018-02-17T18:04:37.189Z,11.33
2018-02-17T18:07:04.935Z,10.67
2018-02-17T18:09:32.639Z,10.30
2018-02-17T18:12:00.373Z,12.37
2018-02-17T18:14:28.023Z,11.03
2018-02-17T18:16:55.801Z,10.30
2018-02-17T18:19:23.483Z,11.10
2018-02-17T18:21:51.916Z,12.47
2018-02-17T18:24:19.645Z,11.17
2018-02-17T18:26:47.293Z,11.90
2018-02-17T18:29:15.691Z,12.20
2018-02-17T18:31:43.446Z,12.50
2018-02-17T18:34:11.125Z,11.70
2018-02-17T18:36:38.796Z,11.50
2018-02-17T18:39:06.576Z,10.77
2018-02-17T18:41:34.265Z,12.30
2018-02-17T18:44:01.955Z,10.80
2018-02-17T18:46:30.397Z,11.90
2018-02-17T18:48:58.265Z,12.97
2018-02-17T18:51:25.851Z,12.83
2018-02-17T18:53:53.589Z,10.97
2018-02-17T18:56:21.288Z,13.40
2018-02-17T18:58:49.700Z,11.70
2018-02-17T19:01:17.412Z,14.13
2018-02-17T19:03:45.090Z,13.30
2018-02-17T19:06:13.565Z,11.80
2018-02-17T19:08:41.568Z,12.27
2018-02-17T19:11:09.162Z,13.27
2018-02-17T19:13:36.935Z,12.10
2018-02-17T19:16:05.472Z,13.77
2018-02-17T19:18:33.193Z,15.53
2018-02-17T19:21:01.043Z,13.10
2018-02-17T19:23:28.690Z,12.37
2018-02-17T19:25:56.565Z,13.60
2018-02-17T19:28:24.331Z,12.77
2018-02-17T19:30:52.056Z,11.00
2018-02-17T19:33:20.443Z,12.03
2018-02-17T19:35:48.204Z,13.40
2018-02-17T19:38:15.860Z,13.70
2018-02-17T19:40:43.563Z,13.43
2018-02-17T19:43:11.348Z,14.13
2018-02-17T19:45:39.334Z,15.50
2018-02-17T19:48:08.067Z,17.03
2018-02-17T19:50:35.853Z,15.57
2018-02-17T19:53:03.750Z,18.30
2018-02-17T19:55:32.534Z,17.03
2018-02-17T19:58:00.459Z,16.30
2018-02-17T20:00:28.368Z,17.70
2018-02-17T20:02:57.069Z,18.07
2018-02-17T20:05:25.019Z,19.23
2018-02-17T20:07:52.815Z,20.50
2018-02-17T20:12:54.958Z,19.20
2018-02-17T20:15:22.999Z,23.00
2018-02-17T20:17:50.937Z,18.10
2018-02-17T20:20:18.786Z,19.30
2018-02-17T20:22:47.481Z,19.50
2018-02-17T20:25:15.290Z,21.00
2018-02-17T20:27:43.131Z,20.50
2018-02-17T20:30:11.345Z,22.70
2018-02-17T20:32:39.526Z,21.27
2018-02-17T20:35:07.504Z,18.70
2018-02-17T20:37:35.470Z,18.83
2018-02-17T20:40:03.377Z,16.27
2018-02-17T20:42:31.257Z,17.97
2018-02-17T20:44:59.833Z,14.83
2018-02-17T20:47:27.753Z,16.43
2018-02-17T20:49:55.589Z,14.87
2018-02-17T20:52:23.508Z,16.07
2018-02-17T20:54:51.239Z,13.30
2018-02-17T20:57:19.969Z,16.73
2018-02-17T20:59:47.916Z,17.33
2018-02-17T21:02:15.987Z,17.90
2018-02-17T21:04:44.125Z,16.83
2018-02-17T21:07:11.987Z,15.30
2018-02-17T21:09:39.854Z,16.77
2018-02-17T21:12:07.650Z,16.77
2018-02-17T21:14:35.355Z,17.33
2018-02-17T21:17:03.027Z,15.70
2018-02-17T21:19:30.737Z,16.13
2018-02-17T21:21:58.392Z,16.00
2018-02-17T21:24:26.086Z,16.67
2018-02-17T21:26:53.767Z,16.30
2018-02-17T21:29:21.420Z,17.10
2018-02-17T21:31:49.092Z,15.37
2018-02-17T21:34:16.735Z,16.83
2018-02-17T21:36:45.244Z,15.77
2018-02-17T21:39:12.969Z,17.67
2018-02-17T21:41:40.682Z,18.33
2018-02-17T21:44:08.316Z,17.00
2018-02-17T21:46:36.069Z,18.00
2018-02-17T21:49:03.894Z,19.00
2018-02-17T21:51:31.616Z,19.73
2018-02-17T21:53:59.693Z,16.70
2018-02-17T21:56:27.432Z,15.17
2018-02-17T21:58:54.953Z,15.57
2018-02-17T22:01:22.621Z,15.83
2018-02-17T22:03:50.372Z,15.07
2018-02-17T22:06:18.265Z,17.13
2018-02-17T22:08:45.931Z,15.63
2018-02-17T22:11:13.606Z,15.73
2018-02-17T22:13:41.312Z,16.00
2018-02-17T22:16:08.988Z,16.53
2018-02-17T22:18:36.736Z,16.90
2018-02-17T22:21:04.477Z,17.20
2018-02-17T22:23:32.159Z,17.87
2018-02-17T22:25:59.880Z,14.33
2018-02-17T22:28:27.805Z,16.43
2018-02-17T22:30:55.485Z,18.20
2018-02-17T22:33:23.208Z,18.37
2018-02-17T22:35:50.940Z,17.70
2018-02-17T22:38:18.787Z,14.30
2018-02-17T22:40:46.594Z,16.20
2018-02-17T22:43:14.239Z,16.00
2018-02-17T22:45:41.966Z,16.33
2018-02-17T22:48:09.694Z,17.60
2018-02-17T22:50:37.457Z,17.00
2018-02-17T22:53:05.186Z,18.57
2018-02-17T22:55:32.901Z,18.10
2018-02-17T22:58:00.520Z,16.23
2018-02-17T23:00:31.143Z,17.13
2018-02-17T23:02:58.825Z,19.20
2018-02-17T23:05:26.424Z,17.10
2018-02-17T23:07:54.164Z,17.07
2018-02-17T23:10:21.882Z,18.30
2018-02-17T23:12:50.364Z,16.90
2018-02-17T23:15:18.850Z,17.57
2018-02-17T23:17:47.344Z,16.00
2018-02-17T23:20:15.724Z,15.27
2018-02-17T23:22:44.168Z,15.20
2018-02-17T23:25:11.943Z,17.10
2018-02-17T23:27:39.708Z,17.80
2018-02-17T23:30:07.408Z,17.87
2018-02-17T23:32:35.309Z,16.03
2018-02-17T23:35:02.969Z,15.40
2018-02-17T23:37:30.645Z,16.87
2018-02-17T23:39:58.268Z,18.20
2018-02-17T23:42:25.907Z,18.67
2018-02-17T23:44:53.580Z,15.63
2018-02-17T23:47:21.293Z,17.63
2018-02-17T23:49:48.955Z,16.80
2018-02-17T23:52:16.594Z,17.00
2018-02-17T23:54:44.217Z,18.17
2018-02-17T23:57:11.680Z,18.80
2018-02-17T23:59:39.514Z,16.03
